Time;durP1;ratioP1;P1;durP2;ratioP2;P2;SDS_P1;SDS_P2;PMS_P1;PMS_P2;Temp;Humidity;BMP_temperature;BMP_pressure;BME280_temperature;BME280_humidity;BME280_pressure;Samples;Min_cycle;Max_cycle;Signal;HPM_P1;HPM_P2
2023/02/25 00:05:12;;;;;;;17.10;11.20;;;;;;;2.03;98.39;97242.39;443650;1252;200404;-65
2023/02/25 00:15:18;;;;;;;14.60;10.30;;;;;;;1.99;98.53;97234.35;433649;1254;142982;-65
2023/02/25 00:25:23;;;;;;;11.60;8.80;;;;;;;1.91;98.83;97223.85;439162;1252;142785;-66
2023/02/25 00:35:29;;;;;;;17.80;9.30;;;;;;;1.87;99.27;97226.04;435041;1253;142959;-65
2023/02/25 00:45:35;;;;;;;14.90;8.90;;;;;;;1.85;99.21;97205.10;442669;1252;142459;-65
2023/02/25 00:55:41;;;;;;;16.30;10.40;;;;;;;1.87;99.44;97186.17;449598;1252;211116;-66
2023/02/25 01:05:48;;;;;;;13.90;9.10;;;;;;;1.88;99.04;97165.73;450206;1252;150730;-65
2023/02/25 01:15:53;;;;;;;;;;;;;;;1.90;99.12;97160.07;445496;1252;142252;-65
2023/02/25 01:25:58;;;;;;;13.50;10.10;;;;;;;1.90;99.22;97137.50;438469;1252;128677;-63
2023/02/25 01:36:05;;;;;;;13.00;8.50;;;;;;;1.87;99.62;97118.39;442156;1253;142580;-64
2023/02/25 01:46:10;;;;;;;12.70;7.80;;;;;;;1.85;99.27;97113.83;445298;1253;143271;-64
2023/02/25 01:56:19;;;;;;;11.20;6.90;;;;;;;1.79;99.05;97105.80;450264;1252;201416;-63
2023/02/25 02:06:31;;;;;;;10.20;6.70;;;;;;;1.72;98.77;97097.59;447610;1252;147146;-64
2023/02/25 02:16:53;;;;;;;10.40;6.90;;;;;;;1.69;98.63;97083.35;432858;1254;143053;-63
2023/02/25 02:27:03;;;;;;;8.40;6.40;;;;;;;1.63;98.62;97073.94;432774;1253;142636;-64
2023/02/25 02:37:21;;;;;;;6.50;5.00;;;;;;;1.54;98.62;97067.61;443403;1252;141684;-63
2023/02/25 02:47:31;;;;;;;11.10;7.60;;;;;;;1.47;98.87;97073.58;441057;1252;142171;-64
2023/02/25 02:57:41;;;;;;;8.40;5.30;;;;;;;1.39;99.21;97079.11;450250;1252;142969;-63
2023/02/25 03:07:52;;;;;;;7.10;5.30;;;;;;;1.23;99.13;97082.23;433655;1253;196387;-63
2023/02/25 03:18:03;;;;;;;7.80;7.00;;;;;;;0.92;99.08;97087.19;433243;1253;141356;-63
2023/02/25 03:28:23;;;;;;;5.70;5.10;;;;;;;0.70;99.62;97091.14;441392;1252;141195;-62
2023/02/25 03:38:33;;;;;;;6.50;5.60;;;;;;;0.64;99.95;97093.28;436666;1253;141378;-62
2023/02/25 03:48:41;;;;;;;7.00;5.80;;;;;;;0.60;100.00;97093.67;434259;1253;141318;-64
2023/02/25 03:58:47;;;;;;;7.00;6.00;;;;;;;0.54;100.00;97101.11;438671;1252;195853;-63
2023/02/25 04:08:53;;;;;;;6.50;5.80;;;;;;;0.54;100.00;97105.42;443747;1252;142423;-63
2023/02/25 04:18:59;;;;;;;6.10;5.50;;;;;;;0.59;100.00;97096.36;449392;1252;143478;-63
2023/02/25 04:29:04;;;;;;;7.70;5.90;;;;;;;0.60;100.00;97084.89;450245;1252;142151;-63
2023/02/25 04:39:12;;;;;;;9.00;6.90;;;;;;;0.66;100.00;97076.06;450269;1252;142468;-63
2023/02/25 04:49:20;;;;;;;7.60;6.10;;;;;;;0.73;100.00;97068.24;449380;1252;141866;-63
2023/02/25 04:59:26;;;;;;;11.90;8.40;;;;;;;0.77;100.00;97059.23;450178;1252;142350;-64
2023/02/25 05:09:33;;;;;;;10.10;8.60;;;;;;;0.80;100.00;97049.71;450188;1252;142524;-63
2023/02/25 05:19:38;;;;;;;10.30;7.50;;;;;;;0.82;100.00;97037.33;449329;1252;142532;-64
2023/02/25 05:29:44;;;;;;;11.50;9.60;;;;;;;0.86;100.00;97027.10;450121;1252;142697;-63
2023/02/25 05:39:50;;;;;;;11.40;9.80;;;;;;;0.88;100.00;97023.20;449379;1253;141966;-63
2023/02/25 05:49:56;;;;;;;12.30;9.70;;;;;;;0.90;100.00;97024.09;450294;1253;143669;-63
2023/02/25 06:00:07;;;;;;;12.50;9.40;;;;;;;0.95;100.00;97022.92;450232;1252;144509;-62
2023/02/25 06:10:13;;;;;;;14.00;11.90;;;;;;;1.00;100.00;97029.28;449516;1253;144715;-63
2023/02/25 06:20:20;;;;;;;12.10;9.60;;;;;;;1.05;100.00;97031.52;450169;1252;142523;-64
2023/02/25 06:30:26;;;;;;;12.20;9.90;;;;;;;1.08;100.00;97033.76;450202;1252;144341;-64
2023/02/25 06:40:32;;;;;;;10.70;8.10;;;;;;;1.41;100.00;97027.91;449544;1253;143862;-64
2023/02/25 06:50:40;;;;;;;11.00;8.00;;;;;;;2.01;100.00;97023.86;450243;1253;143445;-63
2023/02/25 07:00:45;;;;;;;10.80;8.10;;;;;;;2.24;100.00;97022.63;449512;1253;142605;-63
2023/02/25 07:10:51;;;;;;;9.20;7.90;;;;;;;2.23;100.00;97020.12;450162;1253;142747;-63
2023/02/25 07:20:58;;;;;;;7.60;6.00;;;;;;;2.27;100.00;97024.85;450298;1252;142340;-63
2023/02/25 07:31:03;;;;;;;;;;;;;;;2.37;100.00;97026.33;449548;1253;143436;-63
2023/02/25 07:41:10;;;;;;;6.60;5.60;;;;;;;2.18;100.00;97021.65;450465;1253;129258;-63
2023/02/25 07:51:22;;;;;;;9.80;5.80;;;;;;;2.02;100.00;97020.33;450091;1252;141623;-63
2023/02/25 08:01:30;;;;;;;9.00;5.10;;;;;;;2.34;100.00;97014.33;449429;1253;142040;-63
2023/02/25 08:11:36;;;;;;;6.40;4.20;;;;;;;2.59;100.00;97015.63;450293;1252;142364;-63
2023/02/25 08:21:41;;;;;;;6.50;4.60;;;;;;;2.64;100.00;97013.77;449505;1253;142116;-64
2023/02/25 08:31:48;;;;;;;3.40;3.10;;;;;;;2.59;99.94;97013.41;450225;1253;142979;-64
2023/02/25 08:41:54;;;;;;;2.80;2.50;;;;;;;2.87;99.99;97012.40;450278;1253;142685;-63
2023/02/25 08:51:59;;;;;;;2.30;2.20;;;;;;;2.78;99.59;97014.65;449517;1252;142535;-64
2023/02/25 09:02:06;;;;;;;2.40;2.30;;;;;;;2.81;99.76;97021.45;450296;1253;143068;-63
2023/02/25 09:12:12;;;;;;;4.40;3.10;;;;;;;2.99;99.17;97020.67;450252;1253;142562;-63
2023/02/25 09:22:18;;;;;;;2.50;2.30;;;;;;;2.84;99.20;97019.35;449596;1253;142523;-64
2023/02/25 09:32:24;;;;;;;1.50;1.40;;;;;;;2.88;98.93;97028.91;450283;1252;142322;-64
2023/02/25 09:42:49;;;;;;;1.50;1.30;;;;;;;2.43;98.71;97039.93;450095;1253;141718;-64
2023/02/25 09:53:06;;;;;;;3.80;1.70;;;;;;;2.98;99.73;97037.89;449861;1253;141471;-63
2023/02/25 10:03:20;;;;;;;3.80;1.90;;;;;;;3.59;98.66;97032.34;450256;1253;143698;-64
2023/02/25 10:13:36;;;;;;;3.30;2.20;;;;;;;4.13;98.24;97033.36;449530;1255;141914;-64
2023/02/25 10:23:58;;;;;;;1.90;1.70;;;;;;;4.62;96.83;97029.30;450275;1253;142394;-64
2023/02/25 10:34:21;;;;;;;2.90;2.50;;;;;;;3.90;95.57;97041.17;449532;1253;142132;-64
2023/02/25 10:44:27;;;;;;;2.20;2.00;;;;;;;3.75;97.40;97046.50;450052;1253;141640;-63
2023/02/25 10:54:35;;;;;;;1.70;1.60;;;;;;;4.03;96.78;97048.49;449659;1253;143342;-63
2023/02/25 11:04:41;;;;;;;3.10;2.90;;;;;;;3.19;95.22;97054.80;449449;1254;142573;-64
2023/02/25 11:14:47;;;;;;;4.10;3.70;;;;;;;2.86;96.68;97059.87;449701;1253;142596;-63
2023/02/25 11:24:59;;;;;;;3.20;2.90;;;;;;;3.27;96.97;97058.04;449523;1253;142066;-63
2023/02/25 11:35:09;;;;;;;2.50;2.30;;;;;;;3.18;96.02;97058.38;450359;1253;141663;-63
2023/02/25 11:45:18;;;;;;;3.20;2.90;;;;;;;3.26;95.92;97067.95;450294;1254;142277;-63
2023/02/25 11:55:36;;;;;;;4.00;3.60;;;;;;;3.08;95.75;97077.41;449636;1254;142109;-63
2023/02/25 12:06:08;;;;;;;2.80;2.60;;;;;;;3.12;96.17;97088.15;450317;1253;152838;-63
2023/02/25 12:16:44;;;;;;;3.80;3.00;;;;;;;3.57;96.07;97098.51;449606;1254;141915;-64
2023/02/25 12:27:09;;;;;;;4.10;3.80;;;;;;;3.00;95.58;97106.18;450364;1256;142311;-64
2023/02/25 12:37:37;;;;;;;3.40;3.10;;;;;;;2.73;95.68;97114.83;449608;1253;142578;-63
2023/02/25 12:47:56;;;;;;;3.50;2.50;;;;;;;2.43;96.69;97130.07;450389;1254;142377;-64
2023/02/25 12:58:26;;;;;;;3.20;2.80;;;;;;;2.74;96.91;97135.86;449563;1253;142422;-63
2023/02/25 13:08:52;;;;;;;2.90;2.50;;;;;;;2.69;96.87;97155.02;450289;1253;143247;-64
2023/02/25 13:19:15;;;;;;;3.40;2.70;;;;;;;2.61;96.95;97168.54;449649;1254;142404;-64
2023/02/25 13:29:44;;;;;;;2.80;2.20;;;;;;;2.70;96.95;97179.34;450406;1254;141473;-64
2023/02/25 13:40:15;;;;;;;2.20;2.00;;;;;;;2.30;96.54;97193.09;449612;1253;183163;-64
2023/02/25 13:50:53;;;;;;;2.70;2.20;;;;;;;2.37;96.96;97203.33;450111;1253;142834;-64
2023/02/25 14:01:25;;;;;;;3.80;2.80;;;;;;;2.69;96.89;97203.06;449402;1254;142660;-63
2023/02/25 14:11:41;;;;;;;3.50;2.80;;;;;;;2.53;96.72;97223.13;447933;1254;142180;-63
2023/02/25 14:22:11;;;;;;;2.30;2.00;;;;;;;2.47;97.54;97235.13;449306;1253;142903;-65
2023/02/25 14:32:37;;;;;;;2.70;1.70;;;;;;;2.49;97.37;97250.38;440727;1254;141631;-64
2023/02/25 14:43:00;;;;;;;2.10;1.80;;;;;;;2.39;97.23;97263.30;449053;1254;142214;-64
2023/02/25 14:53:32;;;;;;;2.10;1.90;;;;;;;2.33;97.51;97281.84;449697;1253;142505;-63
2023/02/25 15:04:09;;;;;;;2.90;2.30;;;;;;;2.06;97.14;97302.41;447660;1254;142444;-63
2023/02/25 15:14:42;;;;;;;3.10;2.70;;;;;;;1.73;97.00;97311.96;443219;1254;141179;-63
2023/02/25 15:24:49;;;;;;;4.40;3.30;;;;;;;1.53;97.18;97324.98;448682;1253;142840;-63
2023/02/25 15:34:59;;;;;;;6.30;4.30;;;;;;;1.34;97.81;97336.81;445406;1255;200665;-63
2023/02/25 15:45:37;;;;;;;6.20;4.90;;;;;;;1.26;98.24;97345.44;436918;1254;141398;-64
2023/02/25 15:55:44;;;;;;;7.40;5.30;;;;;;;1.06;98.46;97353.39;447457;1252;141922;-63
2023/02/25 16:05:52;;;;;;;7.40;6.10;;;;;;;0.97;99.13;97376.09;446807;1253;142131;-63
2023/02/25 16:16:00;;;;;;;9.50;6.60;;;;;;;0.92;99.65;97393.65;437652;1253;143320;-63
2023/02/25 16:26:16;;;;;;;6.60;5.90;;;;;;;0.94;100.00;97405.41;450164;1253;143669;-63
2023/02/25 16:36:31;;;;;;;7.30;5.60;;;;;;;1.06;100.00;97415.40;449971;1253;143343;-63
2023/02/25 16:46:40;;;;;;;7.90;6.60;;;;;;;1.14;100.00;97433.73;441502;1253;141622;-63
2023/02/25 16:56:49;;;;;;;6.00;5.20;;;;;;;1.13;100.00;97457.38;440203;1253;143772;-63
2023/02/25 17:07:16;;;;;;;5.90;4.30;;;;;;;1.10;100.00;97476.14;442696;1254;142819;-63
2023/02/25 17:17:27;;;;;;;4.90;4.10;;;;;;;0.96;100.00;97497.81;449536;1253;142611;-64
2023/02/25 17:27:34;;;;;;;4.60;3.80;;;;;;;0.91;100.00;97521.19;449568;1253;142082;-69
2023/02/25 17:37:40;;;;;;;4.60;3.30;;;;;;;0.78;100.00;97533.29;448765;1254;143280;-69
2023/02/25 17:47:46;;;;;;;3.80;2.80;;;;;;;0.60;100.00;97547.22;441739;1252;141029;-68
2023/02/25 17:57:53;;;;;;;2.70;2.30;;;;;;;0.37;100.00;97567.05;439843;1252;143080;-69
2023/02/25 18:08:18;;;;;;;5.10;3.10;;;;;;;0.14;100.00;97580.89;437543;1252;143226;-70
2023/02/25 18:18:24;;;;;;;5.80;3.60;;;;;;;-0.01;100.00;97593.02;449915;1252;144224;-69
2023/02/25 18:28:30;;;;;;;4.40;3.80;;;;;;;-0.02;100.00;97617.48;449154;1252;142250;-68
2023/02/25 18:38:36;;;;;;;5.50;4.70;;;;;;;0.02;100.00;97636.59;449979;1252;187410;-68
2023/02/25 18:48:40;;;;;;;;;;;;;;;0.05;100.00;97667.19;445525;1253;142316;-69
2023/02/25 18:58:46;;;;;;;3.80;3.50;;;;;;;0.11;100.00;97675.81;434430;1253;129295;-69
2023/02/25 19:08:52;;;;;;;3.50;2.80;;;;;;;0.19;100.00;97689.89;447149;1253;145905;-68
2023/02/25 19:18:58;;;;;;;3.80;3.00;;;;;;;0.23;100.00;97710.16;442858;1253;145279;-69
2023/02/25 19:29:03;;;;;;;4.20;3.50;;;;;;;0.28;100.00;97740.36;441857;1253;142018;-69
2023/02/25 19:39:09;;;;;;;4.50;2.60;;;;;;;0.28;100.00;97763.08;444133;1253;141908;-69
2023/02/25 19:49:15;;;;;;;2.70;1.80;;;;;;;0.23;100.00;97787.44;448725;1252;141906;-69
2023/02/25 19:59:21;;;;;;;2.80;2.50;;;;;;;0.15;100.00;97807.95;447048;1252;144807;-68
2023/02/25 20:09:26;;;;;;;1.80;1.60;;;;;;;0.09;100.00;97833.88;437609;1252;141052;-68
2023/02/25 20:19:32;;;;;;;3.20;2.30;;;;;;;0.03;100.00;97853.61;447619;1253;143159;-69
2023/02/25 20:29:38;;;;;;;3.20;2.40;;;;;;;0.03;100.00;97870.98;450146;1252;141220;-69
2023/02/25 20:39:50;;;;;;;2.60;2.20;;;;;;;0.05;100.00;97883.65;436415;1252;142422;-68
2023/02/25 20:49:58;;;;;;;3.10;2.80;;;;;;;0.02;99.95;97903.23;448970;1252;142555;-69
2023/02/25 21:00:05;;;;;;;4.00;3.20;;;;;;;0.01;100.00;97917.89;436441;1253;143872;-68
2023/02/25 21:10:13;;;;;;;4.10;2.90;;;;;;;-0.04;99.94;97940.13;449324;1252;142009;-69
2023/02/25 21:20:19;;;;;;;3.30;2.90;;;;;;;-0.09;99.85;97957.40;450225;1252;142532;-69
2023/02/25 21:30:25;;;;;;;3.30;2.70;;;;;;;-0.12;99.77;97973.53;448464;1252;144628;-69
2023/02/25 21:40:33;;;;;;;3.70;2.40;;;;;;;-0.14;99.52;97995.13;438920;1252;141834;-69
2023/02/25 21:50:44;;;;;;;2.30;2.10;;;;;;;-0.19;99.04;98009.29;443417;1252;142081;-68
2023/02/25 22:00:50;;;;;;;6.20;1.80;;;;;;;-0.26;98.49;98020.81;449382;1252;142959;-69
2023/02/25 22:10:56;;;;;;;2.00;1.60;;;;;;;-0.30;98.10;98030.80;450173;1252;142469;-64
2023/02/25 22:21:10;;;;;;;4.10;2.40;;;;;;;-0.36;97.58;98050.61;450120;1252;142569;-65
2023/02/25 22:31:18;;;;;;;4.40;2.30;;;;;;;-0.38;97.39;98071.05;440192;1252;145762;-64
2023/02/25 22:41:26;;;;;;;3.90;2.60;;;;;;;-0.47;97.07;98084.80;450119;1252;143658;-65
2023/02/25 22:51:34;;;;;;;3.40;2.70;;;;;;;-0.53;96.63;98095.56;443535;1252;142749;-64
2023/02/25 23:01:41;;;;;;;3.90;2.40;;;;;;;-0.55;96.47;98111.81;444288;1253;211965;-65
2023/02/25 23:11:46;;;;;;;2.90;2.50;;;;;;;-0.62;95.87;98132.01;449457;1252;141309;-64
2023/02/25 23:21:52;;;;;;;3.90;2.80;;;;;;;-0.69;95.44;98145.39;432584;1256;140870;-66
2023/02/25 23:31:58;;;;;;;4.50;2.30;;;;;;;-0.78;95.44;98163.45;450026;1253;142870;-64
2023/02/25 23:42:04;;;;;;;3.60;2.40;;;;;;;-0.87;94.96;98181.67;449901;1253;142838;-65
2023/02/25 23:52:10;;;;;;;7.20;3.10;;;;;;;-0.92;94.75;98202.14;449182;1253;142662;-65
